createdAt,value
2018-09-01T00:02:25.415Z,14.84
2018-09-01T00:05:01.252Z,14.93
2018-09-01T00:07:36.983Z,14.89
2018-09-01T00:10:12.869Z,15.03
2018-09-01T00:12:49.161Z,14.77
2018-09-01T00:15:27.003Z,14.85
2018-09-01T00:18:02.834Z,14.67
2018-09-01T00:20:38.563Z,14.69
2018-09-01T00:23:14.572Z,14.85
2018-09-01T00:25:50.554Z,14.67
2018-09-01T00:28:26.402Z,14.37
2018-09-01T00:31:02.820Z,14.25
2018-09-01T00:33:39.200Z,14.24
2018-09-01T00:36:15.139Z,14.26
2018-09-01T00:38:56.177Z,14.51
2018-09-01T00:41:33.022Z,14.64
2018-09-01T00:44:08.891Z,14.37
2018-09-01T00:46:44.836Z,14.08
2018-09-01T00:49:20.871Z,14.06
2018-09-01T00:51:56.519Z,14.23
2018-09-01T00:54:32.486Z,14.14
2018-09-01T00:57:08.975Z,13.88
2018-09-01T00:59:44.884Z,13.93
2018-09-01T01:02:20.702Z,13.89
2018-09-01T01:04:56.617Z,13.81
2018-09-01T01:07:32.497Z,13.49
2018-09-01T01:10:08.576Z,13.33
2018-09-01T01:12:45.101Z,13.40
2018-09-01T01:15:20.970Z,13.41
2018-09-01T01:17:57.268Z,13.41
2018-09-01T01:20:33.089Z,13.48
2018-09-01T01:23:08.949Z,13.52
2018-09-01T01:25:44.977Z,13.44
2018-09-01T01:28:20.649Z,13.16
2018-09-01T01:30:56.611Z,13.25
2018-09-01T01:33:32.909Z,13.41
2018-09-01T01:36:08.708Z,13.69
2018-09-01T01:38:45.828Z,13.58
2018-09-01T01:41:22.726Z,13.69
2018-09-01T01:43:58.446Z,13.68
2018-09-01T01:46:34.431Z,13.78
2018-09-01T01:49:10.501Z,13.69
2018-09-01T01:51:46.434Z,13.57
2018-09-01T01:54:22.235Z,13.24
2018-09-01T01:56:58.296Z,13.05
2018-09-01T01:59:33.916Z,12.87
2018-09-01T02:02:10.248Z,12.88
2018-09-01T02:04:45.979Z,13.14
2018-09-01T02:07:21.763Z,13.25
2018-09-01T02:09:57.762Z,12.98
2018-09-01T02:12:33.571Z,12.93
2018-09-01T02:15:09.580Z,13.05
2018-09-01T02:17:45.498Z,13.09
2018-09-01T02:20:21.264Z,13.34
2018-09-01T02:22:57.195Z,13.39
2018-09-01T02:25:32.991Z,13.51
2018-09-01T02:28:08.793Z,13.65
2018-09-01T02:30:44.744Z,13.73
2018-09-01T02:33:20.575Z,13.86
2018-09-01T02:35:56.365Z,13.84
2018-09-01T02:38:32.292Z,13.41
2018-09-01T02:41:08.434Z,13.34
2018-09-01T02:43:44.414Z,13.38
2018-09-01T02:46:20.175Z,13.05
2018-09-01T02:48:56.110Z,12.42
2018-09-01T02:51:31.881Z,12.11
2018-09-01T02:54:07.775Z,12.29
2018-09-01T02:56:43.382Z,12.29
2018-09-01T02:59:19.310Z,12.60
2018-09-01T03:01:55.927Z,12.78
2018-09-01T03:04:31.863Z,12.82
2018-09-01T03:07:07.623Z,12.89
2018-09-01T03:09:43.431Z,12.95
2018-09-01T03:12:19.194Z,13.13
2018-09-01T03:14:55.130Z,13.00
2018-09-01T03:17:30.861Z,12.69
2018-09-01T03:20:06.909Z,12.56
2018-09-01T03:22:42.663Z,12.18
2018-09-01T03:25:18.526Z,12.11
2018-09-01T03:27:55.855Z,12.10
2018-09-01T03:30:32.700Z,11.95
2018-09-01T03:33:08.547Z,11.90
2018-09-01T03:35:44.401Z,11.93
2018-09-01T03:38:20.274Z,12.30
2018-09-01T03:40:56.205Z,12.61
2018-09-01T03:43:32.103Z,12.87
2018-09-01T03:46:08.033Z,12.97
2018-09-01T03:48:45.450Z,13.08
2018-09-01T03:51:21.507Z,13.17
2018-09-01T03:53:57.420Z,13.25
2018-09-01T03:56:33.306Z,13.32
2018-09-01T03:59:09.214Z,13.38
2018-09-01T04:01:45.363Z,13.47
2018-09-01T04:04:21.137Z,13.02
2018-09-01T04:06:57.058Z,12.39
2018-09-01T04:09:32.801Z,12.23
2018-09-01T04:12:09.570Z,12.00
2018-09-01T04:14:50.471Z,11.70
2018-09-01T04:17:26.450Z,11.38
2018-09-01T04:20:02.297Z,11.43
2018-09-01T04:22:38.147Z,11.58
2018-09-01T04:25:13.917Z,11.80
2018-09-01T04:27:49.572Z,12.04
2018-09-01T04:30:25.438Z,12.21
2018-09-01T04:33:01.666Z,12.43
2018-09-01T04:35:38.081Z,12.37
2018-09-01T04:38:14.968Z,12.55
2018-09-01T04:40:50.857Z,12.99
2018-09-01T04:43:27.241Z,13.45
2018-09-01T04:46:03.694Z,13.73
2018-09-01T04:48:39.730Z,14.07
2018-09-01T04:51:15.789Z,14.21
2018-09-01T04:53:51.548Z,14.23
2018-09-01T04:56:27.533Z,14.19
2018-09-01T04:59:03.365Z,14.08
2018-09-01T05:01:39.130Z,13.81
2018-09-01T05:04:15.245Z,13.94
2018-09-01T05:06:51.549Z,13.98
2018-09-01T05:09:27.746Z,14.29
2018-09-01T05:12:03.829Z,14.53
2018-09-01T05:14:39.636Z,14.68
2018-09-01T05:17:15.981Z,14.69
2018-09-01T05:19:51.848Z,14.52
2018-09-01T05:22:27.593Z,14.67
2018-09-01T05:25:03.471Z,14.70
2018-09-01T05:27:39.929Z,14.92
2018-09-01T05:30:16.181Z,15.09
2018-09-01T05:32:52.107Z,15.15
2018-09-01T05:35:28.061Z,15.13
2018-09-01T05:38:04.160Z,15.31
2018-09-01T05:40:40.209Z,15.42
2018-09-01T05:43:16.374Z,15.62
2018-09-01T05:45:52.840Z,15.84
2018-09-01T05:48:28.696Z,16.11
2018-09-01T05:51:04.715Z,16.47
2018-09-01T05:53:40.556Z,16.56
2018-09-01T05:56:16.945Z,16.97
2018-09-01T05:58:52.756Z,17.36
2018-09-01T06:01:28.974Z,17.64
2018-09-01T06:04:04.960Z,18.06
2018-09-01T06:06:42.520Z,18.42
2018-09-01T06:09:18.404Z,18.78
2018-09-01T06:11:54.301Z,19.16
2018-09-01T06:14:30.546Z,19.18
2018-09-01T06:17:11.169Z,19.31
2018-09-01T06:19:47.132Z,19.53
2018-09-01T06:22:23.193Z,19.82
2018-09-01T06:25:00.106Z,19.96
2018-09-01T06:27:38.706Z,20.10
2018-09-01T06:30:18.945Z,19.81
2018-09-01T06:32:55.201Z,19.68
2018-09-01T06:35:31.473Z,19.88
2018-09-01T06:38:07.500Z,20.41
2018-09-01T06:40:38.475Z,20.26
2018-09-01T06:43:13.612Z,20.21
2018-09-01T06:45:44.650Z,20.31
2018-09-01T06:48:16.265Z,20.59
2018-09-01T06:50:47.218Z,20.83
2018-09-01T06:53:18.525Z,20.89
2018-09-01T06:55:51.225Z,21.00
2018-09-01T06:58:22.214Z,20.99
2018-09-01T07:00:53.650Z,21.03
2018-09-01T07:03:24.505Z,21.12
2018-09-01T07:05:56.361Z,21.41
2018-09-01T07:08:27.183Z,21.36
2018-09-01T07:10:58.697Z,21.54
2018-09-01T07:13:29.837Z,21.61
2018-09-01T07:16:03.247Z,22.11
2018-09-01T07:18:34.171Z,22.30
2018-09-01T07:21:05.658Z,22.52
2018-09-01T07:23:36.478Z,22.39
2018-09-01T07:26:07.929Z,22.29
2018-09-01T07:28:41.392Z,22.46
2018-09-01T07:31:12.583Z,22.85
2018-09-01T07:33:43.750Z,23.07
2018-09-01T07:36:14.928Z,22.84
2018-09-01T07:38:45.942Z,23.10
2018-09-01T07:41:17.165Z,22.94
2018-09-01T07:43:48.048Z,23.03
2018-09-01T07:46:18.853Z,23.30
2018-09-01T07:48:50.019Z,23.56
2018-09-01T07:51:21.436Z,23.74
2018-09-01T07:56:58.044Z,24.38
2018-09-01T07:59:28.892Z,24.09
2018-09-01T08:02:00.099Z,24.39
2018-09-01T08:04:30.908Z,24.20
2018-09-01T08:07:01.756Z,24.43
2018-09-01T08:09:32.551Z,25.03
2018-09-01T08:12:03.364Z,25.43
2018-09-01T08:14:34.360Z,25.09
2018-09-01T08:17:05.948Z,24.80
2018-09-01T08:19:37.162Z,24.57
2018-09-01T08:22:08.255Z,24.92
2018-09-01T08:24:39.282Z,25.13
2018-09-01T08:27:10.120Z,25.42
2018-09-01T08:29:41.587Z,25.78
2018-09-01T08:32:13.198Z,25.79
2018-09-01T08:34:44.336Z,25.68
2018-09-01T08:37:15.216Z,25.53
2018-09-01T08:39:46.744Z,25.43
2018-09-01T08:42:17.565Z,26.09
2018-09-01T08:44:48.871Z,25.86
2018-09-01T08:47:20.004Z,26.41
2018-09-01T08:49:50.963Z,26.37
2018-09-01T08:52:21.931Z,26.93
2018-09-01T08:54:52.749Z,26.97
2018-09-01T08:57:23.657Z,27.53
2018-09-01T08:59:58.717Z,27.83
2018-09-01T09:02:30.263Z,27.71
2018-09-01T09:05:01.554Z,28.01
2018-09-01T09:07:32.818Z,27.28
2018-09-01T09:10:05.125Z,27.47
2018-09-01T09:12:37.773Z,27.81
2018-09-01T09:15:08.659Z,28.18
2018-09-01T09:17:42.295Z,28.22
2018-09-01T09:20:16.239Z,28.65
2018-09-01T09:22:47.455Z,28.73
2018-09-01T09:25:19.855Z,29.27
2018-09-01T09:27:50.802Z,29.46
2018-09-01T09:30:21.689Z,29.42
2018-09-01T09:32:54.464Z,29.37
2018-09-01T09:35:25.233Z,29.53
2018-09-01T09:37:56.216Z,29.00
2018-09-01T09:40:27.004Z,29.14
2018-09-01T09:42:58.483Z,28.80
2018-09-01T09:45:29.273Z,28.35
2018-09-01T09:48:00.173Z,28.33
2018-09-01T09:50:30.967Z,28.72
2018-09-01T09:53:02.068Z,29.31
2018-09-01T09:55:33.072Z,29.22
2018-09-01T09:58:04.004Z,29.02
2018-09-01T10:00:40.132Z,28.96
2018-09-01T10:03:11.138Z,28.99
2018-09-01T10:05:42.661Z,29.25
2018-09-01T10:08:13.679Z,28.76
2018-09-01T10:10:44.482Z,28.67
2018-09-01T10:13:15.325Z,29.17
2018-09-01T10:15:46.761Z,29.18
2018-09-01T10:18:17.849Z,29.61
2018-09-01T10:20:48.778Z,29.92
2018-09-01T10:23:19.661Z,29.87
2018-09-01T10:25:51.230Z,30.05
2018-09-01T10:28:22.054Z,30.46
2018-09-01T10:30:52.909Z,30.56
2018-09-01T10:33:23.965Z,30.86
2018-09-01T10:35:55.473Z,30.82
2018-09-01T10:38:26.844Z,30.50
2018-09-01T10:40:57.902Z,30.40
2018-09-01T10:43:28.810Z,30.37
2018-09-01T10:45:59.672Z,30.76
2018-09-01T10:48:42.857Z,30.38
2018-09-01T10:51:13.654Z,30.77
2018-09-01T10:53:45.155Z,30.60
2018-09-01T10:56:15.964Z,30.22
2018-09-01T10:58:46.823Z,30.29
2018-09-01T11:01:17.648Z,30.79
2018-09-01T11:03:48.500Z,30.88
2018-09-01T11:06:19.345Z,30.95
2018-09-01T11:08:50.249Z,31.05
2018-09-01T11:11:21.096Z,30.94
2018-09-01T11:13:51.931Z,30.94
2018-09-01T11:16:23.073Z,31.53
2018-09-01T11:18:54.089Z,31.68
2018-09-01T11:21:25.220Z,31.78
2018-09-01T11:23:56.205Z,32.03
2018-09-01T11:26:27.724Z,31.07
2018-09-01T11:28:58.535Z,31.21
2018-09-01T11:31:29.365Z,31.20
2018-09-01T11:34:00.338Z,31.39
2018-09-01T11:36:31.184Z,31.60
2018-09-01T11:39:03.193Z,31.01
2018-09-01T11:41:34.039Z,30.60
2018-09-01T11:44:06.584Z,31.30
2018-09-01T11:46:37.450Z,32.02
2018-09-01T11:49:08.284Z,32.25
2018-09-01T11:51:39.145Z,32.39
2018-09-01T11:54:10.459Z,32.58
2018-09-01T11:56:41.351Z,32.10
2018-09-01T11:59:12.631Z,32.27
2018-09-01T12:01:43.447Z,31.59
2018-09-01T12:04:14.312Z,31.06
2018-09-01T12:06:45.219Z,31.92
2018-09-01T12:09:16.166Z,31.60
2018-09-01T12:11:47.255Z,31.42
2018-09-01T12:14:18.116Z,31.39
2018-09-01T12:16:49.343Z,31.92
2018-09-01T12:19:20.164Z,32.59
2018-09-01T12:21:51.013Z,32.01
2018-09-01T12:24:21.886Z,32.78
2018-09-01T12:26:53.577Z,32.77
2018-09-01T12:29:24.462Z,32.44
2018-09-01T12:31:55.252Z,32.37
2018-09-01T12:34:26.285Z,32.74
2018-09-01T12:36:57.061Z,32.79
2018-09-01T12:39:27.991Z,33.02
2018-09-01T12:41:59.062Z,33.48
2018-09-01T12:44:30.081Z,33.66
2018-09-01T12:47:00.875Z,33.51
2018-09-01T12:49:31.713Z,33.64
2018-09-01T12:52:02.684Z,33.40
2018-09-01T12:54:33.829Z,33.50
2018-09-01T12:57:04.628Z,33.10
2018-09-01T12:59:35.573Z,32.98
2018-09-01T13:02:06.507Z,33.31
2018-09-01T13:04:37.349Z,33.68
2018-09-01T13:07:14.745Z,32.68
2018-09-01T13:09:45.637Z,32.77
2018-09-01T13:12:16.495Z,33.55
2018-09-01T13:14:47.761Z,33.52
2018-09-01T13:17:18.676Z,33.79
2018-09-01T13:19:49.519Z,32.70
2018-09-01T13:22:20.322Z,33.01
2018-09-01T13:24:51.188Z,33.59
2018-09-01T13:27:21.970Z,34.36
2018-09-01T13:29:53.818Z,34.10
2018-09-01T13:32:25.268Z,33.82
2018-09-01T13:34:56.156Z,33.69
2018-09-01T13:37:27.172Z,34.26
2018-09-01T13:39:58.027Z,34.45
2018-09-01T13:42:29.068Z,34.58
2018-09-01T13:45:00.548Z,34.67
2018-09-01T13:47:31.574Z,35.29
2018-09-01T13:50:02.454Z,35.20
2018-09-01T13:52:33.566Z,35.15
2018-09-01T13:55:04.910Z,33.66
2018-09-01T13:57:35.699Z,33.59
2018-09-01T14:00:07.456Z,33.60
2018-09-01T14:02:38.294Z,34.72
2018-09-01T14:05:09.168Z,34.99
2018-09-01T14:07:39.994Z,35.13
2018-09-01T14:10:11.146Z,34.33
2018-09-01T14:12:42.980Z,34.84
2018-09-01T14:15:13.967Z,36.25
2018-09-01T14:17:45.441Z,37.55
2018-09-01T14:20:16.293Z,37.81
2018-09-01T14:22:47.224Z,37.88
2018-09-01T14:25:18.960Z,37.98
2018-09-01T14:27:49.807Z,35.71
2018-09-01T14:30:20.931Z,36.53
2018-09-01T14:32:51.833Z,35.70
2018-09-01T14:35:22.948Z,36.16
2018-09-01T14:37:53.743Z,37.01
2018-09-01T14:40:25.162Z,37.39
2018-09-01T14:42:56.916Z,37.43
2018-09-01T14:45:27.845Z,37.25
2018-09-01T14:47:58.671Z,37.81
2018-09-01T14:50:29.651Z,36.24
2018-09-01T14:53:02.001Z,37.34
2018-09-01T14:55:33.025Z,37.44
2018-09-01T14:58:03.899Z,36.42
2018-09-01T15:00:35.697Z,34.46
2018-09-01T15:03:06.642Z,33.03
2018-09-01T15:05:37.468Z,31.90
2018-09-01T15:08:09.238Z,30.86
2018-09-01T15:10:40.301Z,29.98
2018-09-01T15:13:11.114Z,29.31
2018-09-01T15:15:42.321Z,29.27
2018-09-01T15:18:13.903Z,29.53
2018-09-01T15:20:45.371Z,29.24
2018-09-01T15:23:16.302Z,29.01
2018-09-01T15:25:47.717Z,28.91
2018-09-01T15:28:18.951Z,29.00
2018-09-01T15:30:49.845Z,28.77
2018-09-01T15:33:23.316Z,28.75
2018-09-01T15:35:54.434Z,28.45
2018-09-01T15:38:26.297Z,28.09
2018-09-01T15:40:58.172Z,28.07
2018-09-01T15:43:29.429Z,27.71
2018-09-01T15:46:00.269Z,27.69
2018-09-01T15:48:31.497Z,27.58
2018-09-01T15:51:02.541Z,27.37
2018-09-01T15:53:33.337Z,27.33
2018-09-01T15:56:04.569Z,27.29
2018-09-01T15:58:36.345Z,27.26
2018-09-01T16:01:07.686Z,26.95
2018-09-01T16:03:38.709Z,26.92
2018-09-01T16:06:09.744Z,26.93
2018-09-01T16:08:40.541Z,27.05
2018-09-01T16:11:11.465Z,26.94
2018-09-01T16:13:42.351Z,26.80
2018-09-01T16:16:14.013Z,26.70
2018-09-01T16:18:45.124Z,26.56
2018-09-01T16:21:15.935Z,26.31
2018-09-01T16:23:46.987Z,26.22
2018-09-01T16:26:17.915Z,26.10
2018-09-01T16:28:48.931Z,26.19
2018-09-01T16:31:19.777Z,26.11
2018-09-01T16:33:50.664Z,26.06
2018-09-01T16:36:21.510Z,25.91
2018-09-01T16:38:52.329Z,25.69
2018-09-01T16:41:23.268Z,25.42
2018-09-01T16:43:54.771Z,25.41
2018-09-01T16:46:26.608Z,25.01
2018-09-01T16:48:57.558Z,25.05
2018-09-01T16:51:28.525Z,24.85
2018-09-01T16:53:59.335Z,24.59
2018-09-01T16:56:30.326Z,24.48
2018-09-01T16:59:01.134Z,24.36
2018-09-01T17:01:32.164Z,24.32
2018-09-01T17:04:02.988Z,24.01
2018-09-01T17:06:33.885Z,23.69
2018-09-01T17:09:05.969Z,23.26
2018-09-01T17:11:36.874Z,23.36
2018-09-01T17:14:07.701Z,23.21
2018-09-01T17:16:38.543Z,23.12
2018-09-01T17:19:09.472Z,22.96
2018-09-01T17:21:42.760Z,22.83
2018-09-01T17:24:15.344Z,22.77
2018-09-01T17:26:48.181Z,22.51
2018-09-01T17:29:27.672Z,22.43
2018-09-01T17:32:01.867Z,22.43
2018-09-01T17:34:32.884Z,22.25
2018-09-01T17:37:03.715Z,22.23
2018-09-01T17:39:34.923Z,22.45
2018-09-01T17:42:06.287Z,22.16
2018-09-01T17:44:37.065Z,22.13
2018-09-01T17:47:09.577Z,21.92
2018-09-01T17:49:41.594Z,21.70
2018-09-01T17:52:12.440Z,21.76
2018-09-01T17:54:43.432Z,21.41
2018-09-01T17:57:17.757Z,21.26
2018-09-01T17:59:49.361Z,21.06
2018-09-01T18:02:20.480Z,20.98
2018-09-01T18:04:51.789Z,21.07
2018-09-01T18:07:23.074Z,21.06
2018-09-01T18:09:56.545Z,21.02
2018-09-01T18:12:28.018Z,20.90
2018-09-01T18:14:58.875Z,20.59
2018-09-01T18:17:29.996Z,20.36
2018-09-01T18:20:01.032Z,20.21
2018-09-01T18:22:31.995Z,20.15
2018-09-01T18:25:02.917Z,20.15
2018-09-01T18:27:33.903Z,19.94
2018-09-01T18:30:05.273Z,19.89
2018-09-01T18:32:36.585Z,19.90
2018-09-01T18:35:08.363Z,19.94
2018-09-01T18:37:40.054Z,20.18
2018-09-01T18:40:10.911Z,20.23
2018-09-01T18:42:41.837Z,20.11
2018-09-01T18:45:12.652Z,20.20
2018-09-01T18:47:43.475Z,19.81
2018-09-01T18:50:14.268Z,19.78
2018-09-01T18:52:45.193Z,19.55
2018-09-01T18:55:16.166Z,19.70
2018-09-01T18:57:47.383Z,19.83
2018-09-01T19:00:18.213Z,19.75
2018-09-01T19:02:49.266Z,19.66
2018-09-01T19:05:20.386Z,19.56
2018-09-01T19:07:51.341Z,19.22
2018-09-01T19:10:22.302Z,18.99
2018-09-01T19:12:53.848Z,18.94
2018-09-01T19:15:24.667Z,18.71
2018-09-01T19:17:55.513Z,18.33
2018-09-01T19:20:26.523Z,18.13
2018-09-01T19:22:57.347Z,17.90
2018-09-01T19:25:28.744Z,18.06
2018-09-01T19:28:00.237Z,18.34
2018-09-01T19:30:31.052Z,18.37
2018-09-01T19:33:01.903Z,18.44
2018-09-01T19:35:32.698Z,18.51
2018-09-01T19:38:03.712Z,18.32
2018-09-01T19:40:34.628Z,17.96
2018-09-01T19:43:06.223Z,17.92
2018-09-01T19:45:37.918Z,18.03
2018-09-01T19:48:09.758Z,17.72
2018-09-01T19:50:40.563Z,17.69
2018-09-01T19:53:11.426Z,17.62
2018-09-01T19:55:42.244Z,17.45
2018-09-01T19:58:13.275Z,17.13
2018-09-01T20:00:49.919Z,16.90
2018-09-01T20:03:25.821Z,16.93
2018-09-01T20:06:01.725Z,16.79
2018-09-01T20:08:37.661Z,16.75
2018-09-01T20:11:13.425Z,16.85
2018-09-01T20:13:49.522Z,16.78
2018-09-01T20:16:25.272Z,16.98
2018-09-01T20:19:01.049Z,17.17
2018-09-01T20:21:36.952Z,17.27
2018-09-01T20:24:12.968Z,17.39
2018-09-01T20:26:48.935Z,17.29
2018-09-01T20:29:24.841Z,17.05
2018-09-01T20:32:00.893Z,16.71
2018-09-01T20:34:40.878Z,16.38
2018-09-01T20:37:18.004Z,16.11
2018-09-01T20:39:53.834Z,15.93
2018-09-01T20:42:30.301Z,16.13
2018-09-01T20:45:06.631Z,15.98
2018-09-01T20:47:42.622Z,15.81
2018-09-01T20:50:18.511Z,16.05
2018-09-01T20:52:54.273Z,16.28
2018-09-01T20:55:36.721Z,16.46
2018-09-01T20:58:14.090Z,16.64
2018-09-01T21:00:49.848Z,16.85
2018-09-01T21:03:25.637Z,16.88
2018-09-01T21:06:01.681Z,16.91
2018-09-01T21:08:37.594Z,16.89
2018-09-01T21:11:13.471Z,16.51
2018-09-01T21:13:49.865Z,16.32
2018-09-01T21:16:25.815Z,16.24
2018-09-01T21:19:01.827Z,16.27
2018-09-01T21:21:37.755Z,16.45
2018-09-01T21:24:14.195Z,16.55
2018-09-01T21:26:49.884Z,16.53
2018-09-01T21:29:25.717Z,16.44
2018-09-01T21:32:01.644Z,15.62
2018-09-01T21:34:37.408Z,14.86
2018-09-01T21:37:13.241Z,14.88
2018-09-01T21:39:49.168Z,14.72
2018-09-01T21:42:25.057Z,14.68
2018-09-01T21:45:01.049Z,14.71
2018-09-01T21:47:37.145Z,14.72
2018-09-01T21:50:14.659Z,14.98
2018-09-01T21:52:50.626Z,14.94
2018-09-01T21:55:26.487Z,14.73
2018-09-01T21:58:02.159Z,14.57
2018-09-01T22:00:43.684Z,14.56
2018-09-01T22:03:21.060Z,14.45
2018-09-01T22:05:56.779Z,14.43
2018-09-01T22:08:32.791Z,14.47
2018-09-01T22:11:08.451Z,14.36
2018-09-01T22:13:44.279Z,13.95
2018-09-01T22:16:20.097Z,13.79
2018-09-01T22:18:55.972Z,13.97
2018-09-01T22:21:31.732Z,14.18
2018-09-01T22:24:08.267Z,14.09
2018-09-01T22:26:43.876Z,13.96
2018-09-01T22:29:19.887Z,14.09
2018-09-01T22:31:55.661Z,14.08
2018-09-01T22:34:31.488Z,14.10
2018-09-01T22:37:08.177Z,14.34
2018-09-01T22:39:44.143Z,14.63
2018-09-01T22:42:19.916Z,14.73
2018-09-01T22:44:55.712Z,14.94
2018-09-01T22:47:33.099Z,14.68
2018-09-01T22:50:10.143Z,14.58
2018-09-01T22:52:45.860Z,14.35
2018-09-01T22:55:21.811Z,13.56
2018-09-01T22:57:58.094Z,13.34
2018-09-01T23:00:33.797Z,13.28
2018-09-01T23:03:09.913Z,13.45
2018-09-01T23:05:45.796Z,13.54
2018-09-01T23:08:21.975Z,13.56
2018-09-01T23:10:57.766Z,13.65
2018-09-01T23:13:33.564Z,13.75
2018-09-01T23:16:09.395Z,13.87
2018-09-01T23:18:45.915Z,13.67
2018-09-01T23:21:21.722Z,13.57
2018-09-01T23:23:58.328Z,13.68
2018-09-01T23:26:34.101Z,13.42
2018-09-01T23:29:09.850Z,13.05
2018-09-01T23:31:46.457Z,12.79
2018-09-01T23:34:22.215Z,12.54
2018-09-01T23:36:58.223Z,12.51
2018-09-01T23:39:34.213Z,12.62
2018-09-01T23:42:10.084Z,12.73
2018-09-01T23:44:45.885Z,12.85
2018-09-01T23:47:21.766Z,13.08
2018-09-01T23:49:57.489Z,13.31
2018-09-01T23:52:33.433Z,13.24
2018-09-01T23:55:09.413Z,13.27
2018-09-01T23:57:45.220Z,13.27
